Aérodrome :
LOGIN :

S'inscrire | Disclaimer

   EN    FR    IT 

 










Légende :    VFR   VFR Marginal   IFR   IFR Intensif   IFR Très Intensif
Visi : 
Plafond : 
>= 8 km
>= 3000ft
5 à 8 km
1000 à 3000 ft
1500m à 5 km
500 à 1000 ft
800 à 1500m
200 à 500 ft
< 800m
< 200 ft
Symboles :   Orages  Brouillard  Fortes neiges  Fortes précipitations  Vent > 20 kt
SIGMETs :   Divers  Orages  Givrage  Turbulence  Onde Orograph.  Cendres Volcan.







- Altitude de l'aérodrome : 423 ft
- Code IATA : PIS
- Voir les cartes d'approche


LFBI - Poitiers

METARs EXPIRÉS :
  • 241430Z AUTO 27007KT 180V330 CAVOK 27/12 Q1019 NOSIG
  • 241400Z AUTO 26008KT 220V320 CAVOK 25/10 Q1019 NOSIG
  • 241330Z AUTO 26006KT 210V300 CAVOK 25/11 Q1019 NOSIG
  • 241300Z AUTO 25008KT 170V310 CAVOK 26/10 Q1020 NOSIG
  • 241230Z AUTO 29007KT 240V340 CAVOK 24/11 Q1020 NOSIG
  • 241200Z AUTO 24010KT CAVOK 25/11 Q1020 NOSIG

Prévision TAF périmée.
Pas de NOTAMs connus pour ce terrain.
1 SIGMET publié pour la FIR Bordeaux (LFBB) :
 
Orages noyés dans la masse
LFBB SIGMET 2 VALID 251800/252000 LFPW
LFBB BORDEAUX FIR/UIR EMBD TS OBS WI N4245 E00230 - N4215 E00230 - N4245 W00015 - N4315 E00030 TOP FL390 STNR NC=



MET'MAP, la Météo Aéronautique d'un coup d'oeil ! - Copyright ORBIFLY Décembre 2007 - Disclaimer

ORBIFLY MET'MAP TEAM :

Programmation & Développement : Alexandra Zaïnal
Conception & Développement : Baudouin d'Aumeries
Co-Programmation & Développement : Marc-Olivier Méhu
Soutien technique & logistique : Manuel Goepfert

Contact : metmap@orbifly.com




SOURCES & CREDITS :

   NOAA